Buena Vista, CO

3:29 PM MDT on June 26, 2017 (GMT -0600)
Kettering Residence | | Change Station

Elev 8035 ft 38.84 °N, 106.15 °W | Updated 9 seconds ago

Clear
Clear
81.0 °F
Feels Like 79 °F
N
4.5
Wind Variable Wind from East
Gusts 7.4 mph

Today
High -- | Low -- °F
--% Chance of Precip.
Yesterday
High -- | Low -- °F
Precip. -- in
Pressure 30.28 in
Visibility 10.0 miles
Clouds Clear
Heat Index 79 °F
Dew Point 36 °F
Humidity 20%
Rainfall 0.00 in
Snow Depth Not available.
5:41 AM 8:33 PM
Waxing Crescent, 11% visible
METAR KAEJ 262115Z AUTO 18012G20KT 10SM CLR 27/00 A3028 RMK AO2 T02740000
Pressure 30.28 in
Visibility 10.0 miles
Clouds Clear
Heat Index 79 °F
Dew Point 36 °F
Humidity 20%
Rainfall 0.00 in
Snow Depth Not available.
5:41 AM 8:33 PM
Waxing Crescent, 11% visible
METAR KAEJ 262115Z AUTO 18012G20KT 10SM CLR 27/00 A3028 RMK AO2 T02740000

Get Severe Weather Alerts

Thanks for signing up!

Be on the lookout for a verification email in your inbox.

You'll start receiving the daily forecast at 6 AM.

×

10-Day Weather Forecast

Almanac

Astronomy

Jun. 26, 2017 Rise Set
Actual Time
Civil Twilight
Nautical Twilight
Astronomical Twilight
Moon
Length of Visible Light
Length of Day
Tomorrow will be .
, % of the Moon is Illuminated

Today's Extremes

State Highs State Lows

Community

WunderPhotos

Category 6

Welcome to Category 6. This is the collective home for Weather Underground's featured writeups by Dr. Jeff Masters (right), Bob Henson (left), Chris Burt, and other regular contributors.

Nearby

Air Quality

  Air Quality AQ Index Pollutant
Not available.

Snow Depth

Station Depth Elevation

Earthquake Activity

City Distance Mag. Time & Date
Minimum magnitude displayed is 2.5.

Coastal Water Temperatures

Place Temperature

Stations

Nearby Weather Stations

Station Location Temp. Windchill Dew Point Humidity Wind Precip. Elev Updated Type
                   

Watches & Warnings

There are currently no watches in effect.